LNG Dream — C6VO5 — position and weather

sailwx.info

Track history (hours):
 
Tides and Currents Weather Stations Pressure Air Temp Water Temp Dewpoint Dewpoint Depression Visibility Wind Speed Wind Dir Waves Ship Positions

LNG Dream

Last reported at 2015-Sep-04 22:32 UTC. Time now 2015-Sep-04 23:12 UTC.
Position S 20°04' E 116°44'.

Length 289.6 m; beam 49 m.

Type: Ship (hazmat cat A). MMSI: 309065000.

Date/timePositionNaut miles runAvg speedWind from/ knotsBaromVisibWave heightAir tempDewpointWater temp
2015-Sep-04 22:32S 20°04' E 116°44'10111.2
2015-Sep-04 13:31S 18°41' E 117°44'1313.3
2015-Sep-04 12:33S 18°30' E 117°51'4213.0
2015-Sep-04 09:20S 17°53' E 118°13'12013.3
2015-Sep-04 00:20S 16°09' E 119°15'1114.1
2015-Sep-03 23:33S 15°60' E 119°21'3414.7
2015-Sep-03 21:16S 15°31' E 119°39'7314.6
2015-Sep-03 16:19S 14°28' E 120°16'  
2015-Aug-26 06:32N 33°57' E 134°55'1514.8
2015-Aug-26 05:33N 34°11' E 134°56'1313.1
2015-Aug-26 04:33N 34°24' E 135°01'1514.7
2015-Aug-26 03:33N 34°32' E 135°16'8 7.8
2015-Aug-26 02:33N 34°33' E 135°25'0 0.1
2015-Aug-26 01:33N 34°33' E 135°25'  
Track history (hours):
 
Tides and Currents Weather Stations Pressure Air Temp Water Temp Dewpoint Dewpoint Depression Visibility Wind Speed Wind Dir Waves Ship Positions

LNG Dream

Last reported at 2015-Sep-04 22:32 UTC. Time now 2015-Sep-04 23:12 UTC.
Position S 20°04' E 116°44'.

Length 289.6 m; beam 49 m.

Type: Ship (hazmat cat A). MMSI: 309065000.

Date/timePositionNaut miles runAvg speedWind from/ knotsBaromVisibWave heightAir tempDewpointWater temp
2015-Sep-04 22:32S 20°04' E 116°44'10111.2
2015-Sep-04 13:31S 18°41' E 117°44'1313.3
2015-Sep-04 12:33S 18°30' E 117°51'4213.0
2015-Sep-04 09:20S 17°53' E 118°13'12013.3
2015-Sep-04 00:20S 16°09' E 119°15'1114.1
2015-Sep-03 23:33S 15°60' E 119°21'3414.7
2015-Sep-03 21:16S 15°31' E 119°39'7314.6
2015-Sep-03 16:19S 14°28' E 120°16'  
2015-Aug-26 06:32N 33°57' E 134°55'1514.8
2015-Aug-26 05:33N 34°11' E 134°56'1313.1
2015-Aug-26 04:33N 34°24' E 135°01'1514.7
2015-Aug-26 03:33N 34°32' E 135°16'8 7.8
2015-Aug-26 02:33N 34°33' E 135°25'0 0.1
2015-Aug-26 01:33N 34°33' E 135°25'  

Dump ship's entire track history